createdAt,value
2022-07-25T00:00:11.796Z,11.70
2022-07-25T00:02:38.461Z,11.70
2022-07-25T00:05:05.408Z,11.80
2022-07-25T00:07:32.037Z,12.30
2022-07-25T00:09:58.735Z,14.50
2022-07-25T00:12:25.395Z,17.80
2022-07-25T00:14:52.280Z,18.70
2022-07-25T00:17:18.875Z,18.60
2022-07-25T00:19:45.444Z,18.60
2022-07-25T00:22:12.009Z,18.60
2022-07-25T00:24:38.638Z,16.20
2022-07-25T00:27:05.230Z,15.40
2022-07-25T00:29:31.877Z,15.20
2022-07-25T00:31:58.438Z,14.80
2022-07-25T00:34:25.048Z,14.90
2022-07-25T00:36:51.672Z,15.10
2022-07-25T00:39:18.272Z,15.60
2022-07-25T00:41:44.941Z,18.40
2022-07-25T00:44:22.081Z,16.40
2022-07-25T00:46:51.473Z,16.50
2022-07-25T00:49:18.130Z,18.20
2022-07-25T00:51:44.983Z,18.20
2022-07-25T00:54:11.856Z,18.30
2022-07-25T00:56:38.706Z,18.20
2022-07-25T00:59:05.413Z,18.20
2022-07-25T01:01:32.230Z,18.20
2022-07-25T01:03:58.927Z,18.10
2022-07-25T01:06:25.880Z,20.10
2022-07-25T01:08:53.290Z,18.20
2022-07-25T01:11:20.040Z,18.10
2022-07-25T01:13:46.681Z,18.10
2022-07-25T01:16:13.295Z,18.10
2022-07-25T01:18:39.992Z,18.10
2022-07-25T01:21:07.031Z,18.10
2022-07-25T01:23:33.620Z,18.00
2022-07-25T01:26:00.285Z,18.40
2022-07-25T01:28:27.682Z,19.40
2022-07-25T01:30:54.421Z,19.40
2022-07-25T01:33:21.746Z,19.90
2022-07-25T01:35:48.752Z,20.20
2022-07-25T01:38:16.420Z,20.70
2022-07-25T01:40:43.496Z,21.00
2022-07-25T01:43:10.834Z,22.20
2022-07-25T01:45:37.525Z,21.70
2022-07-25T01:48:04.127Z,22.10
2022-07-25T01:50:30.758Z,21.70
2022-07-25T01:52:57.370Z,23.90
2022-07-25T01:55:23.975Z,25.80
2022-07-25T01:57:51.936Z,26.30
2022-07-25T02:00:18.920Z,27.00
2022-07-25T02:02:45.808Z,27.00
2022-07-25T02:05:13.305Z,27.10
2022-07-25T02:07:40.066Z,27.10
2022-07-25T02:10:07.353Z,27.10
2022-07-25T02:12:34.137Z,27.00
2022-07-25T02:15:00.718Z,27.70
2022-07-25T02:17:27.389Z,27.60
2022-07-25T02:19:54.049Z,27.00
2022-07-25T02:22:20.648Z,26.90
2022-07-25T02:24:47.230Z,28.40
2022-07-25T02:27:13.784Z,29.50
2022-07-25T02:29:40.359Z,29.60
2022-07-25T02:32:06.924Z,28.90
2022-07-25T02:34:33.504Z,29.00
2022-07-25T02:37:00.105Z,28.80
2022-07-25T02:39:26.647Z,28.50
2022-07-25T02:41:53.236Z,27.10
2022-07-25T02:44:19.851Z,28.40
2022-07-25T02:46:46.499Z,27.90
2022-07-25T02:49:13.646Z,27.50
2022-07-25T02:51:40.264Z,26.80
2022-07-25T02:54:06.881Z,27.80
2022-07-25T02:56:33.527Z,29.20
2022-07-25T02:59:00.264Z,27.60
2022-07-25T03:01:27.070Z,26.70
2022-07-25T03:03:53.822Z,26.70
2022-07-25T03:06:20.435Z,28.30
2022-07-25T03:08:46.992Z,31.40
2022-07-25T03:11:14.159Z,31.40
2022-07-25T03:13:40.725Z,31.40
2022-07-25T03:16:07.792Z,32.60
2022-07-25T03:18:34.356Z,30.30
2022-07-25T03:21:01.050Z,29.30
2022-07-25T03:23:28.468Z,29.50
2022-07-25T03:25:55.687Z,30.00
2022-07-25T03:28:22.497Z,29.80
2022-07-25T03:30:49.122Z,30.30
2022-07-25T03:33:15.745Z,33.20
2022-07-25T03:35:42.983Z,33.70
2022-07-25T03:38:09.627Z,32.50
2022-07-25T03:40:36.531Z,32.40
2022-07-25T03:43:03.188Z,31.10
2022-07-25T03:45:29.847Z,31.20
2022-07-25T03:47:56.631Z,31.20
2022-07-25T03:50:23.426Z,31.50
2022-07-25T03:52:50.021Z,32.40
2022-07-25T03:55:16.642Z,32.40
2022-07-25T03:57:43.238Z,32.60
2022-07-25T04:00:10.552Z,33.30
2022-07-25T04:02:37.782Z,33.50
2022-07-25T04:05:05.943Z,33.90
2022-07-25T04:07:32.492Z,34.70
2022-07-25T04:09:59.164Z,36.90
2022-07-25T04:12:25.996Z,36.00
2022-07-25T04:14:52.580Z,37.00
2022-07-25T04:17:19.194Z,37.00
2022-07-25T04:19:47.067Z,37.00
2022-07-25T04:22:13.798Z,36.30
2022-07-25T04:24:40.476Z,34.30
2022-07-25T04:27:07.099Z,35.90
2022-07-25T04:29:33.716Z,37.10
2022-07-25T04:32:00.381Z,33.10
2022-07-25T04:34:27.121Z,30.20
2022-07-25T04:36:53.875Z,28.90
2022-07-25T04:39:20.523Z,27.20
2022-07-25T04:41:47.109Z,26.50
2022-07-25T04:44:13.900Z,24.30
2022-07-25T04:46:40.669Z,22.80
2022-07-25T04:49:07.315Z,22.90
2022-07-25T04:51:33.984Z,21.90
2022-07-25T04:54:00.695Z,20.80
2022-07-25T04:56:27.345Z,21.00
2022-07-25T04:58:53.993Z,21.30
2022-07-25T05:01:20.683Z,22.90
2022-07-25T05:03:50.108Z,22.80
2022-07-25T05:06:17.987Z,22.80
2022-07-25T05:08:44.563Z,24.00
2022-07-25T05:11:11.225Z,23.40
2022-07-25T05:13:37.794Z,22.90
2022-07-25T05:16:04.570Z,22.80
2022-07-25T05:18:31.337Z,22.30
2022-07-25T05:20:57.948Z,21.10
2022-07-25T05:23:24.534Z,19.70
2022-07-25T05:25:51.240Z,19.20
2022-07-25T05:28:17.908Z,18.40
2022-07-25T05:30:44.612Z,18.50
2022-07-25T05:33:11.194Z,16.80
2022-07-25T05:35:37.947Z,15.50
2022-07-25T05:38:04.630Z,15.70
2022-07-25T05:40:31.281Z,15.50
2022-07-25T05:43:02.542Z,14.10
2022-07-25T05:45:30.243Z,13.80
2022-07-25T05:47:56.851Z,12.30
2022-07-25T05:50:23.509Z,13.30
2022-07-25T05:52:50.148Z,12.00
2022-07-25T05:55:17.534Z,9.80
2022-07-25T05:57:44.199Z,8.80
2022-07-25T06:00:11.086Z,7.30
2022-07-25T06:02:37.740Z,5.30
2022-07-25T06:05:04.701Z,5.40
2022-07-25T06:07:31.325Z,2.40
2022-07-25T06:09:57.913Z,1.90
2022-07-25T06:12:24.564Z,1.00
2022-07-25T06:14:51.426Z,1.00
2022-07-25T06:17:18.175Z,1.00
2022-07-25T06:19:44.789Z,1.00
2022-07-25T06:22:11.536Z,1.00
2022-07-25T06:24:38.422Z,1.00
2022-07-25T06:27:05.132Z,1.00
2022-07-25T06:29:31.733Z,1.00
2022-07-25T06:31:58.391Z,1.00
2022-07-25T06:34:28.638Z,1.00
2022-07-25T06:36:57.328Z,1.00
2022-07-25T06:39:24.400Z,1.00
2022-07-25T06:41:51.275Z,1.00
2022-07-25T06:44:17.842Z,1.00
2022-07-25T06:46:44.434Z,1.00
2022-07-25T06:49:11.148Z,1.00
2022-07-25T06:51:37.998Z,1.00
2022-07-25T06:54:04.885Z,1.00
2022-07-25T06:56:32.917Z,1.00
2022-07-25T06:59:00.307Z,1.00
2022-07-25T07:01:27.084Z,1.00
2022-07-25T07:03:53.836Z,1.00
2022-07-25T07:06:20.470Z,1.00
2022-07-25T07:08:47.067Z,1.00
2022-07-25T07:11:15.262Z,1.00
2022-07-25T07:13:41.983Z,1.00
2022-07-25T07:16:08.882Z,1.00
2022-07-25T07:18:35.600Z,1.00
2022-07-25T07:21:02.496Z,1.00
2022-07-25T07:23:29.231Z,1.00
2022-07-25T07:25:56.746Z,1.00
2022-07-25T07:28:23.326Z,1.00
2022-07-25T07:31:15.257Z,1.00
2022-07-25T07:33:37.627Z,1.00
2022-07-25T07:36:04.324Z,1.00
2022-07-25T07:38:30.915Z,1.00
2022-07-25T07:40:57.554Z,1.00
2022-07-25T07:43:29.639Z,1.00
2022-07-25T07:45:59.238Z,1.00
2022-07-25T07:48:26.756Z,1.00
2022-07-25T07:50:53.397Z,1.00
2022-07-25T07:53:19.982Z,1.00
2022-07-25T07:55:48.729Z,1.00
2022-07-25T07:58:17.372Z,1.00
2022-07-25T08:00:44.970Z,1.00
2022-07-25T08:03:11.978Z,1.00
2022-07-25T08:05:43.481Z,1.00
2022-07-25T08:08:11.137Z,1.00
2022-07-25T08:10:39.815Z,1.00
2022-07-25T08:13:14.252Z,1.00
2022-07-25T08:15:41.570Z,1.00
2022-07-25T08:18:16.779Z,1.00
2022-07-25T08:20:44.973Z,1.00
2022-07-25T08:23:11.723Z,1.00
2022-07-25T08:25:38.605Z,1.00
2022-07-25T08:28:06.443Z,1.00
2022-07-25T08:30:34.241Z,1.00
2022-07-25T08:33:03.387Z,1.00
2022-07-25T08:35:30.451Z,1.00
2022-07-25T08:37:57.448Z,1.00
2022-07-25T08:40:24.873Z,1.00
2022-07-25T08:42:51.865Z,1.00
2022-07-25T08:45:19.594Z,1.00
2022-07-25T08:47:47.405Z,1.00
2022-07-25T08:50:15.522Z,1.00
2022-07-25T08:52:43.321Z,1.00
2022-07-25T08:55:10.966Z,1.00
2022-07-25T08:57:38.224Z,1.00
2022-07-25T09:00:05.503Z,1.00
2022-07-25T09:02:32.225Z,1.00
2022-07-25T09:04:59.192Z,1.00
2022-07-25T09:07:29.405Z,1.00
2022-07-25T09:09:55.979Z,1.00
2022-07-25T09:12:27.009Z,1.00
2022-07-25T09:14:54.013Z,1.00
2022-07-25T09:17:22.615Z,1.00
2022-07-25T09:19:54.600Z,1.00
2022-07-25T09:22:21.170Z,1.00
2022-07-25T09:24:48.052Z,1.00
2022-07-25T09:27:15.102Z,1.00
2022-07-25T09:29:45.168Z,1.00
2022-07-25T09:32:19.185Z,1.00
2022-07-25T09:34:46.861Z,1.00
2022-07-25T09:37:15.174Z,1.00
2022-07-25T09:39:48.230Z,1.00
2022-07-25T09:42:16.370Z,1.00
2022-07-25T09:44:43.000Z,1.00
2022-07-25T09:47:10.176Z,1.00
2022-07-25T09:49:47.643Z,1.00
2022-07-25T09:52:14.319Z,1.00
2022-07-25T09:54:40.923Z,1.00
2022-07-25T09:57:07.608Z,1.00
2022-07-25T09:59:34.744Z,1.00
2022-07-25T10:02:24.650Z,1.00
2022-07-25T10:04:59.508Z,1.00
2022-07-25T10:07:31.197Z,1.00
2022-07-25T10:09:59.329Z,1.00
2022-07-25T10:12:26.054Z,1.00
2022-07-25T10:15:09.602Z,1.00
2022-07-25T10:17:37.440Z,1.00
2022-07-25T10:20:06.509Z,1.00
2022-07-25T10:22:55.370Z,1.00
2022-07-25T10:25:23.213Z,1.00
2022-07-25T10:27:52.858Z,1.00
2022-07-25T10:30:23.869Z,1.00
2022-07-25T10:32:51.450Z,1.00
2022-07-25T10:35:18.044Z,1.00
2022-07-25T10:37:48.971Z,1.00
2022-07-25T10:40:25.864Z,1.00
2022-07-25T10:42:56.466Z,1.00
2022-07-25T10:45:25.920Z,1.00
2022-07-25T10:47:55.936Z,1.00
2022-07-25T10:50:40.258Z,1.00
2022-07-25T10:53:10.074Z,1.00
2022-07-25T10:55:37.960Z,1.00
2022-07-25T10:58:22.161Z,1.00
2022-07-25T11:00:51.087Z,1.00
2022-07-25T11:03:18.707Z,1.00
2022-07-25T11:05:48.445Z,1.00
2022-07-25T11:08:21.947Z,1.00
2022-07-25T11:10:53.272Z,1.00
2022-07-25T11:13:20.033Z,1.00
2022-07-25T11:15:46.700Z,1.00
2022-07-25T11:18:13.519Z,1.00
2022-07-25T11:20:40.077Z,1.00
2022-07-25T11:23:06.724Z,1.00
2022-07-25T11:25:33.334Z,1.00
2022-07-25T11:28:00.854Z,1.00
2022-07-25T11:30:29.581Z,1.00
2022-07-25T11:32:57.236Z,1.00
2022-07-25T11:35:28.528Z,1.00
2022-07-25T11:37:55.330Z,1.00
2022-07-25T11:40:22.743Z,1.00
2022-07-25T11:42:53.446Z,1.00
2022-07-25T11:45:22.822Z,1.00
2022-07-25T11:47:51.041Z,1.00
2022-07-25T11:50:17.630Z,1.00
2022-07-25T11:52:45.717Z,1.00
2022-07-25T11:55:18.454Z,1.00
2022-07-25T11:57:47.080Z,1.00
2022-07-25T12:00:20.780Z,1.00
2022-07-25T12:02:50.602Z,1.00
2022-07-25T12:05:20.578Z,1.00
2022-07-25T12:07:47.136Z,1.00
2022-07-25T12:10:24.332Z,1.00
2022-07-25T12:13:06.238Z,1.00
2022-07-25T12:15:39.612Z,1.00
2022-07-25T12:18:08.936Z,1.00
2022-07-25T12:20:38.183Z,1.00
2022-07-25T12:23:05.849Z,1.00
2022-07-25T12:25:33.372Z,1.00
2022-07-25T12:28:01.790Z,1.00
2022-07-25T12:30:28.860Z,1.00
2022-07-25T12:32:56.259Z,1.00
2022-07-25T12:35:23.354Z,1.00
2022-07-25T12:37:50.147Z,1.00
2022-07-25T12:40:18.216Z,1.00
2022-07-25T12:42:45.522Z,1.00
2022-07-25T12:45:12.896Z,1.00
2022-07-25T12:47:39.682Z,1.00
2022-07-25T12:50:06.932Z,1.00
2022-07-25T12:52:33.620Z,1.00
2022-07-25T12:55:00.308Z,1.00
2022-07-25T12:57:26.994Z,1.00
2022-07-25T12:59:53.608Z,1.00
2022-07-25T13:02:20.270Z,1.00
2022-07-25T13:04:48.911Z,1.00
2022-07-25T13:07:16.088Z,1.00
2022-07-25T13:09:42.771Z,1.00
2022-07-25T13:12:10.428Z,1.00
2022-07-25T13:14:40.125Z,1.00
2022-07-25T13:17:07.251Z,1.00
2022-07-25T13:19:33.917Z,1.00
2022-07-25T13:22:00.570Z,1.00
2022-07-25T13:24:27.170Z,1.00
2022-07-25T13:26:53.731Z,1.00
2022-07-25T13:29:20.284Z,1.00
2022-07-25T13:31:47.366Z,1.00
2022-07-25T13:34:14.399Z,1.00
2022-07-25T13:36:41.248Z,1.00
2022-07-25T13:39:08.595Z,1.00
2022-07-25T13:41:35.635Z,1.00
2022-07-25T13:44:02.221Z,1.00
2022-07-25T13:46:28.821Z,1.00
2022-07-25T13:48:55.612Z,1.00
2022-07-25T13:51:22.274Z,1.00
2022-07-25T13:53:48.895Z,1.00
2022-07-25T13:56:15.725Z,1.00
2022-07-25T13:58:43.105Z,1.00
2022-07-25T14:01:11.529Z,1.00
2022-07-25T14:03:38.211Z,1.00
2022-07-25T14:06:05.506Z,1.00
2022-07-25T14:08:32.167Z,1.00
2022-07-25T14:10:58.795Z,1.00
2022-07-25T14:13:25.393Z,1.00
2022-07-25T14:15:52.196Z,1.00
2022-07-25T14:18:18.918Z,1.00
2022-07-25T14:20:46.460Z,1.00
2022-07-25T14:23:13.048Z,1.00
2022-07-25T14:25:39.653Z,1.00
2022-07-25T14:28:06.352Z,1.00
2022-07-25T14:30:32.943Z,1.00
2022-07-25T14:32:59.585Z,1.00
2022-07-25T14:35:31.871Z,1.00
2022-07-25T14:37:59.043Z,1.00
2022-07-25T14:40:25.834Z,1.00
2022-07-25T14:42:52.404Z,1.00
2022-07-25T14:45:21.814Z,1.00
2022-07-25T14:47:48.421Z,1.00
2022-07-25T14:50:15.061Z,1.00
2022-07-25T14:52:41.647Z,1.00
2022-07-25T14:55:08.539Z,1.00
2022-07-25T14:57:35.242Z,1.00
2022-07-25T15:00:03.468Z,1.00
2022-07-25T15:02:30.061Z,1.00
2022-07-25T15:04:56.781Z,1.00
2022-07-25T15:07:23.649Z,1.00
2022-07-25T15:09:50.272Z,1.00
2022-07-25T15:12:17.390Z,1.00
2022-07-25T15:14:44.063Z,1.00
2022-07-25T15:17:10.669Z,1.00
2022-07-25T15:19:37.258Z,1.00
2022-07-25T15:22:03.893Z,1.00
2022-07-25T15:24:36.340Z,1.00
2022-07-25T15:27:10.921Z,1.00
2022-07-25T15:29:37.485Z,1.00
2022-07-25T15:32:05.463Z,1.00
2022-07-25T15:34:33.482Z,1.00
2022-07-25T15:37:00.093Z,1.00
2022-07-25T15:39:26.869Z,1.00
2022-07-25T15:41:53.481Z,1.00
2022-07-25T15:44:20.059Z,1.00
2022-07-25T15:46:46.804Z,1.00
2022-07-25T15:49:14.704Z,1.00
2022-07-25T15:51:41.390Z,1.00
2022-07-25T15:54:08.127Z,1.00
2022-07-25T15:56:34.683Z,1.00
2022-07-25T15:59:01.372Z,1.00
2022-07-25T16:01:28.138Z,1.00
2022-07-25T16:03:59.668Z,1.00
2022-07-25T16:06:26.789Z,1.00
2022-07-25T16:08:53.701Z,1.00
2022-07-25T16:11:20.271Z,1.00
2022-07-25T16:13:46.879Z,1.00
2022-07-25T16:16:13.591Z,1.00
2022-07-25T16:18:40.235Z,1.00
2022-07-25T16:21:06.875Z,1.00
2022-07-25T16:23:38.397Z,1.00
2022-07-25T16:26:08.490Z,1.00
2022-07-25T16:28:39.174Z,1.00
2022-07-25T16:31:06.345Z,1.00
2022-07-25T16:33:33.030Z,1.00
2022-07-25T16:35:59.640Z,1.00
2022-07-25T16:38:27.438Z,1.00
2022-07-25T16:40:54.143Z,1.00
2022-07-25T16:43:21.042Z,1.00
2022-07-25T16:45:47.659Z,1.00
2022-07-25T16:48:14.228Z,1.00
2022-07-25T16:50:40.800Z,1.00
2022-07-25T16:53:07.576Z,1.00
2022-07-25T16:55:34.277Z,1.00
2022-07-25T16:58:00.907Z,1.00
2022-07-25T17:00:27.460Z,1.00
2022-07-25T17:02:54.037Z,1.00
2022-07-25T17:05:20.788Z,1.00
2022-07-25T17:07:48.712Z,1.00
2022-07-25T17:10:15.310Z,1.00
2022-07-25T17:12:41.878Z,1.00
2022-07-25T17:15:09.142Z,1.00
2022-07-25T17:17:35.751Z,1.00
2022-07-25T17:20:02.384Z,1.00
2022-07-25T17:22:28.968Z,1.00
2022-07-25T17:24:55.618Z,1.00
2022-07-25T17:27:22.360Z,1.00
2022-07-25T17:29:49.135Z,1.00
2022-07-25T17:32:15.810Z,1.00
2022-07-25T17:34:42.522Z,1.00
2022-07-25T17:37:10.136Z,1.00
2022-07-25T17:39:37.128Z,1.00
2022-07-25T17:42:07.144Z,1.00
2022-07-25T17:44:34.518Z,1.00
2022-07-25T17:47:01.598Z,1.00
2022-07-25T17:49:28.238Z,1.00
2022-07-25T17:51:54.834Z,1.00
2022-07-25T17:54:21.428Z,1.00
2022-07-25T17:56:48.042Z,1.00
2022-07-25T17:59:14.648Z,1.00
2022-07-25T18:01:41.405Z,1.00
2022-07-25T18:04:08.453Z,1.00
2022-07-25T18:06:35.540Z,1.00
2022-07-25T18:09:02.113Z,1.00
2022-07-25T18:11:28.730Z,1.00
2022-07-25T18:13:55.339Z,1.00
2022-07-25T18:16:22.718Z,1.00
2022-07-25T18:18:49.332Z,1.00
2022-07-25T18:21:16.335Z,1.00
2022-07-25T18:23:42.881Z,1.00
2022-07-25T18:26:09.549Z,1.00
2022-07-25T18:28:36.153Z,1.00
2022-07-25T18:31:02.788Z,1.00
2022-07-25T18:33:29.457Z,1.00
2022-07-25T18:35:56.056Z,1.00
2022-07-25T18:38:22.672Z,1.00
2022-07-25T18:40:51.583Z,1.00
2022-07-25T18:43:24.451Z,1.00
2022-07-25T18:45:53.430Z,1.00
2022-07-25T18:48:20.009Z,1.00
2022-07-25T18:50:46.618Z,1.00
2022-07-25T18:53:13.239Z,1.00
2022-07-25T18:55:41.162Z,1.00
2022-07-25T18:58:08.915Z,1.00
2022-07-25T19:00:35.517Z,1.00
2022-07-25T19:03:02.122Z,1.00
2022-07-25T19:05:28.721Z,1.00
2022-07-25T19:07:58.928Z,1.00
2022-07-25T19:10:25.702Z,1.00
2022-07-25T19:12:52.335Z,1.00
2022-07-25T19:15:18.935Z,1.00
2022-07-25T19:17:45.642Z,1.00
2022-07-25T19:20:12.220Z,1.00
2022-07-25T19:22:38.913Z,1.00
2022-07-25T19:25:08.230Z,1.00
2022-07-25T19:27:35.672Z,1.00
2022-07-25T19:30:03.449Z,1.00
2022-07-25T19:32:30.000Z,1.00
2022-07-25T19:34:56.560Z,1.00
2022-07-25T19:37:23.149Z,1.00
2022-07-25T19:39:51.206Z,1.00
2022-07-25T19:42:17.794Z,1.00
2022-07-25T19:44:44.396Z,1.00
2022-07-25T19:47:12.049Z,1.00
2022-07-25T19:49:40.025Z,1.00
2022-07-25T19:52:07.082Z,1.00
2022-07-25T19:54:33.679Z,1.00
2022-07-25T19:57:00.361Z,1.00
2022-07-25T19:59:27.056Z,1.00
2022-07-25T20:01:55.359Z,1.00
2022-07-25T20:04:22.333Z,1.00
2022-07-25T20:06:50.593Z,1.00
2022-07-25T20:09:17.343Z,1.00
2022-07-25T20:11:43.917Z,1.00
2022-07-25T20:14:11.174Z,1.00
2022-07-25T20:16:38.091Z,1.00
2022-07-25T20:19:06.291Z,1.00
2022-07-25T20:21:33.904Z,1.00
2022-07-25T20:24:00.465Z,1.00
2022-07-25T20:26:27.083Z,1.00
2022-07-25T20:28:55.060Z,1.00
2022-07-25T20:31:24.251Z,1.00
2022-07-25T20:33:51.471Z,1.00
2022-07-25T20:36:18.215Z,1.00
2022-07-25T20:38:44.912Z,1.00
2022-07-25T20:41:12.321Z,1.00
2022-07-25T20:43:40.080Z,1.00
2022-07-25T20:46:09.390Z,1.00
2022-07-25T20:48:36.454Z,1.00
2022-07-25T20:51:03.114Z,1.00
2022-07-25T20:53:29.760Z,1.00
2022-07-25T20:55:56.417Z,1.00
2022-07-25T20:58:23.025Z,1.00
2022-07-25T21:00:49.767Z,1.00
2022-07-25T21:03:16.437Z,1.00
2022-07-25T21:05:43.766Z,1.00
2022-07-25T21:08:11.398Z,1.00
2022-07-25T21:10:38.784Z,1.00
2022-07-25T21:13:05.563Z,1.00
2022-07-25T21:15:32.449Z,1.00
2022-07-25T21:17:59.654Z,1.00
2022-07-25T21:20:26.355Z,1.00
2022-07-25T21:22:55.302Z,1.00
2022-07-25T21:25:22.066Z,1.00
2022-07-25T21:27:48.727Z,1.00
2022-07-25T21:30:15.444Z,1.00
2022-07-25T21:32:42.201Z,1.00
2022-07-25T21:35:09.016Z,1.00
2022-07-25T21:37:35.724Z,1.00
2022-07-25T21:40:02.690Z,1.00
2022-07-25T21:42:29.572Z,1.00
2022-07-25T21:44:56.185Z,1.00
2022-07-25T21:47:22.892Z,1.00
2022-07-25T21:50:08.382Z,1.00
2022-07-25T21:52:35.315Z,1.00
2022-07-25T21:55:02.700Z,1.00
2022-07-25T21:57:29.303Z,1.00
2022-07-25T21:59:55.942Z,1.00
2022-07-25T22:02:23.395Z,1.00
2022-07-25T22:04:50.141Z,1.00
2022-07-25T22:07:16.785Z,1.00
2022-07-25T22:09:43.479Z,1.00
2022-07-25T22:12:10.155Z,1.00
2022-07-25T22:14:37.606Z,1.00
2022-07-25T22:17:04.430Z,1.00
2022-07-25T22:19:31.099Z,1.00
2022-07-25T22:21:57.766Z,1.00
2022-07-25T22:24:24.349Z,1.00
2022-07-25T22:26:50.921Z,1.00
2022-07-25T22:29:17.579Z,1.00
2022-07-25T22:31:44.453Z,1.00
2022-07-25T22:34:11.531Z,1.00
2022-07-25T22:36:38.090Z,1.00
2022-07-25T22:39:05.052Z,1.00
2022-07-25T22:41:31.908Z,1.00
2022-07-25T22:43:59.894Z,1.00
2022-07-25T22:46:30.548Z,1.00
2022-07-25T22:48:58.053Z,1.00
2022-07-25T22:51:25.033Z,1.00
2022-07-25T22:53:51.746Z,1.00
2022-07-25T22:56:18.705Z,1.30
2022-07-25T22:58:46.708Z,1.20
2022-07-25T23:01:16.195Z,1.20
2022-07-25T23:03:42.837Z,1.20
2022-07-25T23:06:09.615Z,1.10
2022-07-25T23:08:36.217Z,1.70
2022-07-25T23:11:03.590Z,1.10
2022-07-25T23:13:30.225Z,2.90
2022-07-25T23:15:56.953Z,2.70
2022-07-25T23:18:23.700Z,3.90
2022-07-25T23:20:50.284Z,4.60
2022-07-25T23:23:16.858Z,5.00
2022-07-25T23:25:43.417Z,4.40
2022-07-25T23:28:09.997Z,5.80
2022-07-25T23:30:40.255Z,6.00
2022-07-25T23:33:07.824Z,5.70
2022-07-25T23:35:34.612Z,6.00
2022-07-25T23:38:01.205Z,5.90
2022-07-25T23:40:27.869Z,5.90
2022-07-25T23:42:54.938Z,5.90
2022-07-25T23:45:21.855Z,5.80
2022-07-25T23:47:51.569Z,5.80
2022-07-25T23:50:19.612Z,5.80
2022-07-25T23:52:46.314Z,5.80
2022-07-25T23:55:12.942Z,5.70
2022-07-25T23:57:39.577Z,5.70
